createdAt,value
2018-04-01T00:00:29.313Z,46.17
2018-04-01T00:02:56.967Z,50.30
2018-04-01T00:05:24.613Z,50.38
2018-04-01T00:07:52.403Z,52.42
2018-04-01T00:10:20.190Z,53.33
2018-04-01T00:12:47.821Z,56.55
2018-04-01T00:15:15.498Z,52.13
2018-04-01T00:17:43.148Z,54.38
2018-04-01T00:20:10.784Z,54.10
2018-04-01T00:22:38.577Z,56.35
2018-04-01T00:25:06.259Z,58.97
2018-04-01T00:27:34.027Z,52.25
2018-04-01T00:30:01.729Z,55.12
2018-04-01T00:32:29.385Z,58.22
2018-04-01T00:34:57.195Z,52.92
2018-04-01T00:37:24.839Z,47.50
2018-04-01T00:39:52.454Z,54.03
2018-04-01T00:42:21.099Z,58.00
2018-04-01T00:44:48.865Z,55.50
2018-04-01T00:47:16.519Z,58.95
2018-04-01T00:49:44.192Z,57.17
2018-04-01T00:52:11.815Z,56.10
2018-04-01T00:54:39.491Z,55.33
2018-04-01T00:57:07.125Z,57.22
2018-04-01T00:59:34.771Z,52.42
2018-04-01T01:02:03.315Z,56.10
2018-04-01T01:04:30.972Z,57.55
2018-04-01T01:06:58.846Z,56.30
2018-04-01T01:09:26.522Z,53.35
2018-04-01T01:11:54.230Z,54.95
2018-04-01T01:14:21.852Z,53.85
2018-04-01T01:16:49.488Z,55.63
2018-04-01T01:19:17.181Z,50.53
2018-04-01T01:21:44.794Z,52.72
2018-04-01T01:24:13.288Z,47.10
2018-04-01T01:26:41.074Z,52.60
2018-04-01T01:29:08.917Z,49.38
2018-04-01T01:31:36.567Z,55.53
2018-04-01T01:34:04.242Z,63.42
2018-04-01T01:36:31.865Z,54.58
2018-04-01T01:38:59.671Z,59.30
2018-04-01T01:41:27.312Z,55.20
2018-04-01T01:43:55.504Z,54.08
2018-04-01T01:46:23.199Z,58.92
2018-04-01T01:48:50.920Z,61.55
2018-04-01T01:51:18.791Z,60.30
2018-04-01T01:53:46.660Z,54.15
2018-04-01T01:56:14.530Z,53.08
2018-04-01T01:58:42.296Z,56.65
2018-04-01T02:01:09.941Z,56.78
2018-04-01T02:03:38.046Z,62.97
2018-04-01T02:06:05.667Z,62.80
2018-04-01T02:08:33.359Z,59.95
2018-04-01T02:11:01.073Z,70.45
2018-04-01T02:13:28.979Z,67.75
2018-04-01T02:15:56.739Z,65.25
2018-04-01T02:18:24.360Z,66.43
2018-04-01T02:20:52.163Z,64.20
2018-04-01T02:23:19.787Z,68.45
2018-04-01T02:25:47.692Z,68.18
2018-04-01T02:28:15.372Z,71.28
2018-04-01T02:30:43.024Z,67.70
2018-04-01T02:33:11.036Z,76.10
2018-04-01T02:35:39.563Z,85.75
2018-04-01T02:38:07.334Z,83.05
2018-04-01T02:40:35.197Z,81.28
2018-04-01T02:43:02.892Z,86.10
2018-04-01T02:45:30.728Z,81.35
2018-04-01T02:47:58.353Z,83.22
2018-04-01T02:50:26.046Z,83.57
2018-04-01T02:52:53.723Z,87.55
2018-04-01T02:55:21.579Z,96.45
2018-04-01T02:57:50.262Z,97.78
2018-04-01T03:00:18.042Z,96.95
2018-04-01T03:02:46.195Z,93.18
2018-04-01T03:05:13.825Z,93.65
2018-04-01T03:07:41.481Z,92.00
2018-04-01T03:10:09.401Z,92.25
2018-04-01T03:12:37.253Z,92.93
2018-04-01T03:15:05.122Z,92.93
2018-04-01T03:17:32.904Z,88.57
2018-04-01T03:20:00.594Z,72.82
2018-04-01T03:22:29.127Z,77.15
2018-04-01T03:24:57.622Z,70.57
2018-04-01T03:27:25.318Z,72.22
2018-04-01T03:29:53.762Z,72.40
2018-04-01T03:32:21.619Z,78.50
2018-04-01T03:34:49.791Z,76.07
2018-04-01T03:37:17.418Z,80.20
2018-04-01T03:39:45.215Z,83.55
2018-04-01T03:42:13.081Z,80.00
2018-04-01T03:44:40.946Z,79.32
2018-04-01T03:47:08.715Z,78.05
2018-04-01T03:49:36.472Z,75.93
2018-04-01T03:52:04.240Z,79.37
2018-04-01T03:54:32.024Z,78.85
2018-04-01T03:56:59.692Z,75.87
2018-04-01T03:59:27.536Z,74.37
2018-04-01T04:01:55.223Z,75.20
2018-04-01T04:04:22.883Z,74.15
2018-04-01T04:06:52.260Z,75.07
2018-04-01T04:09:21.168Z,60.03
2018-04-01T04:11:49.013Z,60.75
2018-04-01T04:14:16.775Z,62.85
2018-04-01T04:16:44.746Z,55.17
2018-04-01T04:19:12.375Z,52.58
2018-04-01T04:21:40.173Z,48.55
2018-04-01T04:24:07.956Z,53.50
2018-04-01T04:26:37.522Z,51.13
2018-04-01T04:29:05.172Z,46.65
2018-04-01T04:31:32.791Z,47.28
2018-04-01T04:34:01.449Z,45.78
2018-04-01T04:36:31.005Z,48.58
2018-04-01T04:38:58.727Z,42.85
2018-04-01T04:41:26.527Z,49.38
2018-04-01T04:43:54.934Z,52.80
2018-04-01T04:46:22.826Z,45.58
2018-04-01T04:48:50.590Z,48.42
2018-04-01T04:51:18.278Z,47.67
2018-04-01T04:53:45.904Z,50.88
2018-04-01T04:56:13.541Z,52.40
2018-04-01T04:58:41.195Z,47.72
2018-04-01T05:01:08.823Z,50.63
2018-04-01T05:03:36.580Z,51.05
2018-04-01T05:06:04.429Z,45.05
2018-04-01T05:08:32.564Z,48.67
2018-04-01T05:11:00.191Z,43.97
2018-04-01T05:13:28.028Z,45.42
2018-04-01T05:15:55.890Z,44.63
2018-04-01T05:18:23.575Z,46.13
2018-04-01T05:20:52.850Z,45.30
2018-04-01T05:23:21.457Z,45.72
2018-04-01T05:25:49.093Z,44.70
2018-04-01T05:28:16.822Z,43.35
2018-04-01T05:30:45.226Z,46.53
2018-04-01T05:33:12.869Z,43.03
2018-04-01T05:35:40.769Z,44.15
2018-04-01T05:38:08.440Z,46.60
2018-04-01T05:40:36.102Z,49.05
2018-04-01T05:43:03.955Z,51.60
2018-04-01T05:45:32.394Z,47.20
2018-04-01T05:48:00.016Z,45.55
2018-04-01T05:50:27.692Z,46.55
2018-04-01T05:52:56.244Z,42.10
2018-04-01T05:55:24.003Z,45.80
2018-04-01T05:57:51.775Z,44.47
2018-04-01T06:00:19.399Z,36.33
2018-04-01T06:02:47.197Z,27.60
2018-04-01T06:05:14.832Z,26.23
2018-04-01T06:07:42.944Z,23.77
2018-04-01T06:10:10.794Z,25.20
2018-04-01T06:12:38.446Z,20.30
2018-04-01T06:15:06.626Z,20.48
2018-04-01T06:17:34.310Z,22.17
2018-04-01T06:20:01.936Z,20.10
2018-04-01T06:22:29.713Z,20.00
2018-04-01T06:24:57.385Z,27.15
2018-04-01T06:27:25.035Z,24.40
2018-04-01T06:29:52.802Z,22.85
2018-04-01T06:32:20.667Z,22.35
2018-04-01T06:34:48.310Z,23.17
2018-04-01T06:37:16.095Z,25.48
2018-04-01T06:39:43.897Z,27.23
2018-04-01T06:42:12.283Z,25.83
2018-04-01T06:44:40.667Z,25.33
2018-04-01T06:47:08.887Z,22.17
2018-04-01T06:49:36.511Z,20.90
2018-04-01T06:52:04.161Z,22.13
2018-04-01T06:54:32.075Z,22.20
2018-04-01T06:56:59.865Z,24.55
2018-04-01T06:59:27.494Z,23.58
2018-04-01T07:01:55.370Z,21.10
2018-04-01T07:04:23.004Z,19.12
2018-04-01T07:06:50.656Z,23.45
2018-04-01T07:09:18.458Z,23.62
2018-04-01T07:11:46.155Z,24.45
2018-04-01T07:14:13.780Z,18.85
2018-04-01T07:16:41.541Z,17.60
2018-04-01T07:19:09.407Z,18.62
2018-04-01T07:21:37.065Z,18.95
2018-04-01T07:24:04.831Z,19.62
2018-04-01T07:26:32.903Z,20.17
2018-04-01T07:29:00.599Z,21.87
2018-04-01T07:31:28.323Z,20.00
2018-04-01T07:33:56.196Z,19.20
2018-04-01T07:36:23.814Z,22.58
2018-04-01T07:38:51.458Z,22.08
2018-04-01T07:41:20.100Z,24.05
2018-04-01T07:43:48.187Z,22.40
2018-04-01T07:46:15.934Z,25.50
2018-04-01T07:48:43.592Z,22.98
2018-04-01T07:51:11.247Z,24.67
2018-04-01T07:53:39.021Z,22.02
2018-04-01T07:56:06.893Z,28.95
2018-04-01T07:58:34.754Z,27.60
2018-04-01T08:01:03.253Z,29.30
2018-04-01T08:03:32.538Z,30.95
2018-04-01T08:06:00.168Z,31.35
2018-04-01T08:08:27.963Z,35.85
2018-04-01T08:10:55.592Z,31.45
2018-04-01T08:13:23.372Z,29.20
2018-04-01T08:15:50.988Z,28.38
2018-04-01T08:18:19.376Z,27.35
2018-04-01T08:20:47.821Z,28.67
2018-04-01T08:23:15.482Z,31.17
2018-04-01T08:25:43.177Z,27.52
2018-04-01T08:28:11.623Z,29.77
2018-04-01T08:30:39.351Z,35.83
2018-04-01T08:33:07.029Z,36.20
2018-04-01T08:35:34.744Z,40.55
2018-04-01T08:38:03.187Z,39.65
2018-04-01T08:40:30.853Z,38.92
2018-04-01T08:42:58.541Z,40.80
2018-04-01T08:45:26.961Z,37.35
2018-04-01T08:47:54.615Z,38.67
2018-04-01T08:50:22.297Z,38.30
2018-04-01T08:52:49.933Z,38.33
2018-04-01T08:55:17.639Z,36.08
2018-04-01T08:57:45.300Z,34.97
2018-04-01T09:00:12.955Z,30.23
2018-04-01T09:02:40.651Z,32.63
2018-04-01T09:05:09.049Z,28.02
2018-04-01T09:07:36.683Z,24.48
2018-04-01T09:10:04.425Z,24.65
2018-04-01T09:12:32.089Z,24.48
2018-04-01T09:14:59.941Z,24.00
2018-04-01T09:17:27.607Z,28.10
2018-04-01T09:19:55.277Z,29.70
2018-04-01T09:22:27.879Z,25.17
2018-04-01T09:24:56.422Z,27.15
2018-04-01T09:27:24.109Z,27.90
2018-04-01T09:29:51.863Z,31.08
2018-04-01T09:32:19.614Z,28.90
2018-04-01T09:34:47.478Z,30.70
2018-04-01T09:37:15.102Z,30.12
2018-04-01T09:39:42.774Z,33.20
2018-04-01T09:42:10.416Z,31.87
2018-04-01T09:44:38.807Z,32.85
2018-04-01T09:47:06.604Z,33.92
2018-04-01T09:49:34.368Z,30.37
2018-04-01T09:52:02.147Z,21.52
2018-04-01T09:54:30.012Z,23.83
2018-04-01T09:56:57.688Z,18.95
2018-04-01T09:59:25.519Z,15.50
2018-04-01T10:01:54.080Z,16.98
2018-04-01T10:04:22.487Z,17.80
2018-04-01T10:06:50.758Z,20.45
2018-04-01T10:09:19.929Z,21.65
2018-04-01T10:11:48.344Z,19.65
2018-04-01T10:14:16.922Z,17.70
2018-04-01T10:16:46.220Z,17.95
2018-04-01T10:19:15.442Z,17.40
2018-04-01T10:21:43.828Z,17.75
2018-04-01T10:24:12.794Z,19.35
2018-04-01T10:26:41.254Z,19.83
2018-04-01T10:29:09.642Z,21.35
2018-04-01T10:31:38.869Z,17.60
2018-04-01T10:34:07.703Z,18.98
2018-04-01T10:36:36.218Z,17.37
2018-04-01T10:39:05.427Z,17.02
2018-04-01T10:41:34.003Z,15.38
2018-04-01T10:44:02.386Z,16.73
2018-04-01T10:46:31.152Z,14.48
2018-04-01T10:49:00.359Z,13.50
2018-04-01T10:51:29.502Z,14.60
2018-04-01T10:53:57.430Z,13.52
2018-04-01T10:56:25.359Z,14.40
2018-04-01T10:58:53.049Z,16.58
2018-04-01T11:01:20.827Z,16.00
2018-04-01T11:03:51.249Z,17.30
2018-04-01T11:06:18.874Z,19.52
2018-04-01T11:08:46.496Z,19.98
2018-04-01T11:11:19.961Z,21.17
2018-04-01T11:13:47.729Z,23.98
2018-04-01T11:16:15.516Z,23.65
2018-04-01T11:18:43.153Z,32.38
2018-04-01T11:21:11.144Z,31.95
2018-04-01T11:23:38.885Z,32.65
2018-04-01T11:26:06.546Z,31.95
2018-04-01T11:28:34.612Z,38.47
2018-04-01T11:31:02.294Z,35.85
2018-04-01T11:33:30.070Z,28.08
2018-04-01T11:35:58.492Z,28.23
2018-04-01T11:38:26.312Z,31.77
2018-04-01T11:40:55.596Z,28.67
2018-04-01T11:43:23.456Z,26.60
2018-04-01T11:45:52.143Z,23.30
2018-04-01T11:48:20.008Z,23.52
2018-04-01T11:50:48.494Z,21.85
2018-04-01T11:53:16.380Z,22.50
2018-04-01T11:55:44.057Z,22.80
2018-04-01T11:58:12.560Z,21.42
2018-04-01T12:00:40.187Z,23.38
2018-04-01T12:03:07.936Z,22.92
2018-04-01T12:05:35.615Z,23.00
2018-04-01T12:08:04.275Z,24.80
2018-04-01T12:10:32.170Z,23.50
2018-04-01T12:13:00.677Z,20.45
2018-04-01T12:15:28.390Z,19.10
2018-04-01T12:17:56.328Z,18.98
2018-04-01T12:20:24.142Z,20.33
2018-04-01T12:22:52.661Z,16.92
2018-04-01T12:25:20.791Z,18.27
2018-04-01T12:27:49.450Z,17.02
2018-04-01T12:30:17.330Z,17.58
2018-04-01T12:32:46.011Z,16.08
2018-04-01T12:35:14.450Z,16.42
2018-04-01T12:37:42.267Z,13.50
2018-04-01T12:40:10.007Z,17.80
2018-04-01T12:42:37.811Z,13.98
2018-04-01T12:45:06.461Z,14.27
2018-04-01T12:47:34.108Z,15.00
2018-04-01T12:50:01.762Z,14.13
2018-04-01T12:52:29.654Z,15.25
2018-04-01T12:54:57.414Z,15.68
2018-04-01T12:57:25.290Z,14.63
2018-04-01T12:59:53.045Z,14.55
2018-04-01T13:02:20.911Z,14.43
2018-04-01T13:04:48.596Z,15.18
2018-04-01T13:07:16.230Z,16.27
2018-04-01T13:09:46.927Z,14.82
2018-04-01T13:12:19.645Z,16.55
2018-04-01T13:14:47.290Z,15.48
2018-04-01T13:17:14.956Z,16.27
2018-04-01T13:19:42.737Z,19.15
2018-04-01T13:22:10.613Z,19.40
2018-04-01T13:24:39.760Z,19.58
2018-04-01T13:27:07.581Z,22.30
2018-04-01T13:29:36.741Z,23.45
2018-04-01T13:32:04.541Z,20.62
2018-04-01T13:34:32.397Z,23.77
2018-04-01T13:37:00.361Z,24.42
2018-04-01T13:39:34.675Z,21.83
2018-04-01T13:42:02.997Z,20.92
2018-04-01T13:44:31.041Z,18.62
2018-04-01T13:46:59.720Z,16.23
2018-04-01T13:49:27.696Z,19.67
2018-04-01T13:51:56.371Z,19.37
2018-04-01T13:54:24.246Z,18.65
2018-04-01T13:56:52.911Z,18.10
2018-04-01T13:59:20.610Z,19.00
2018-04-01T14:01:48.306Z,19.55
2018-04-01T14:04:16.000Z,15.90
2018-04-01T14:06:43.711Z,17.35
2018-04-01T14:09:12.113Z,16.13
2018-04-01T14:11:39.841Z,15.35
2018-04-01T14:14:08.265Z,18.60
2018-04-01T14:16:35.950Z,15.95
2018-04-01T14:19:03.584Z,14.43
2018-04-01T14:21:31.275Z,14.83
2018-04-01T14:23:58.940Z,13.85
2018-04-01T14:26:26.695Z,15.35
2018-04-01T14:28:54.456Z,13.43
2018-04-01T14:31:22.149Z,15.83
2018-04-01T14:33:49.831Z,13.93
2018-04-01T14:36:18.284Z,15.10
2018-04-01T14:38:45.912Z,15.60
2018-04-01T14:41:13.606Z,17.00
2018-04-01T14:43:41.302Z,14.60
2018-04-01T14:46:09.023Z,14.50
2018-04-01T14:48:36.687Z,13.50
2018-04-01T14:51:04.359Z,14.15
2018-04-01T14:53:32.028Z,15.57
2018-04-01T14:56:00.519Z,16.73
2018-04-01T14:58:28.240Z,14.13
2018-04-01T15:00:57.759Z,14.43
2018-04-01T15:03:25.612Z,14.10
2018-04-01T15:05:53.369Z,15.73
2018-04-01T15:08:21.207Z,14.02
2018-04-01T15:10:49.004Z,14.98
2018-04-01T15:13:16.872Z,16.02
2018-04-01T15:15:44.747Z,16.27
2018-04-01T15:18:12.607Z,14.57
2018-04-01T15:20:40.240Z,14.57
2018-04-01T15:23:08.014Z,15.15
2018-04-01T15:25:35.647Z,16.73
2018-04-01T15:28:03.372Z,14.75
2018-04-01T15:30:31.217Z,16.10
2018-04-01T15:32:58.877Z,14.07
2018-04-01T15:35:26.969Z,15.18
2018-04-01T15:37:54.296Z,17.58
2018-04-01T15:40:21.974Z,15.60
2018-04-01T15:42:49.631Z,16.77
2018-04-01T15:45:17.648Z,22.30
2018-04-01T15:47:46.092Z,40.53
2018-04-01T15:50:13.780Z,37.72
2018-04-01T15:52:42.252Z,30.25
2018-04-01T15:55:10.651Z,27.30
2018-04-01T15:57:38.283Z,17.67
2018-04-01T16:00:05.980Z,16.43
2018-04-01T16:02:33.649Z,16.73
2018-04-01T16:05:01.340Z,20.67
2018-04-01T16:07:29.041Z,34.05
2018-04-01T16:09:57.529Z,27.13
2018-04-01T16:12:25.150Z,19.35
2018-04-01T16:14:52.828Z,28.42
2018-04-01T16:17:20.473Z,18.23
2018-04-01T16:19:48.168Z,16.48
2018-04-01T16:22:16.569Z,22.20
2018-04-01T16:24:44.310Z,46.78
2018-04-01T16:27:12.712Z,34.03
2018-04-01T16:29:40.476Z,20.65
2018-04-01T16:32:08.160Z,17.48
2018-04-01T16:34:35.884Z,19.00
2018-04-01T16:37:04.302Z,18.55
2018-04-01T16:39:32.089Z,18.17
2018-04-01T16:42:05.504Z,19.65
2018-04-01T16:44:34.066Z,19.77
2018-04-01T16:47:01.927Z,19.70
2018-04-01T16:49:29.579Z,18.37
2018-04-01T16:51:57.234Z,23.55
2018-04-01T16:54:24.891Z,29.80
2018-04-01T16:56:52.600Z,23.98
2018-04-01T16:59:21.009Z,21.50
2018-04-01T17:01:48.667Z,23.83
2018-04-01T17:04:16.299Z,25.33
2018-04-01T17:06:44.149Z,24.08
2018-04-01T17:09:11.913Z,23.42
2018-04-01T17:11:39.644Z,19.73
2018-04-01T17:14:07.436Z,19.58
2018-04-01T17:16:35.094Z,24.95
2018-04-01T17:19:02.864Z,23.95
2018-04-01T17:21:30.511Z,25.37
2018-04-01T17:23:58.388Z,21.95
2018-04-01T17:26:26.283Z,24.17
2018-04-01T17:28:54.122Z,22.62
2018-04-01T17:31:21.885Z,21.98
2018-04-01T17:33:49.568Z,25.23
2018-04-01T17:36:20.484Z,23.42
2018-04-01T17:38:48.162Z,26.23
2018-04-01T17:41:15.868Z,30.02
2018-04-01T17:43:43.591Z,28.20
2018-04-01T17:46:11.230Z,29.77
2018-04-01T17:48:38.946Z,29.10
2018-04-01T17:51:07.336Z,32.75
2018-04-01T17:53:34.964Z,34.92
2018-04-01T17:56:02.636Z,35.47
2018-04-01T17:58:31.083Z,40.63
2018-04-01T18:00:58.783Z,41.78
2018-04-01T18:03:27.219Z,39.22
2018-04-01T18:05:54.888Z,58.00
2018-04-01T18:08:22.557Z,58.35
2018-04-01T18:10:50.265Z,52.10
2018-04-01T18:13:17.924Z,49.40
2018-04-01T18:15:45.602Z,52.47
2018-04-01T18:18:13.283Z,55.75
2018-04-01T18:20:40.919Z,56.25
2018-04-01T18:23:08.616Z,86.93
2018-04-01T18:25:36.243Z,58.97
2018-04-01T18:28:03.909Z,54.60
2018-04-01T18:30:31.595Z,48.92
2018-04-01T18:32:59.290Z,47.40
2018-04-01T18:35:26.967Z,44.60
2018-04-01T18:37:55.416Z,55.60
2018-04-01T18:40:23.095Z,58.50
2018-04-01T18:42:51.528Z,54.40
2018-04-01T18:45:19.185Z,47.45
2018-04-01T18:47:46.917Z,41.50
2018-04-01T18:50:14.600Z,44.22
2018-04-01T18:52:42.315Z,42.60
2018-04-01T18:55:09.986Z,39.58
2018-04-01T18:57:37.648Z,34.55
2018-04-01T19:00:05.340Z,33.85
2018-04-01T19:02:32.986Z,34.55
2018-04-01T19:05:01.395Z,37.30
2018-04-01T19:07:29.066Z,35.47
2018-04-01T19:09:56.810Z,39.42
2018-04-01T19:12:24.443Z,43.45
2018-04-01T19:14:52.887Z,41.17
2018-04-01T19:17:21.082Z,44.95
2018-04-01T19:19:49.459Z,45.75
2018-04-01T19:22:18.022Z,50.53
2018-04-01T19:24:46.483Z,49.72
2018-04-01T19:27:15.640Z,49.03
2018-04-01T19:29:44.047Z,57.33
2018-04-01T19:32:12.447Z,53.25
2018-04-01T19:34:41.878Z,51.45
2018-04-01T19:37:10.443Z,54.22
2018-04-01T19:39:38.869Z,50.65
2018-04-01T19:42:07.282Z,52.22
2018-04-01T19:44:35.712Z,54.55
2018-04-01T19:47:04.091Z,56.37
2018-04-01T19:49:32.743Z,54.75
2018-04-01T19:52:01.239Z,60.30
2018-04-01T19:54:29.807Z,55.58
2018-04-01T19:56:59.105Z,52.78
2018-04-01T19:59:28.818Z,56.28
2018-04-01T20:01:58.124Z,62.80
2018-04-01T20:04:26.616Z,63.53
2018-04-01T20:06:55.018Z,57.00
2018-04-01T20:09:23.556Z,59.22
2018-04-01T20:11:52.776Z,58.42
2018-04-01T20:14:21.167Z,50.22
2018-04-01T20:16:51.250Z,44.85
2018-04-01T20:19:20.467Z,42.33
2018-04-01T20:21:48.868Z,41.97
2018-04-01T20:24:18.232Z,46.37
2018-04-01T20:26:47.450Z,38.97
2018-04-01T20:29:15.855Z,45.65
2018-04-01T20:31:44.307Z,46.22
2018-04-01T20:34:12.772Z,48.70
2018-04-01T20:36:41.352Z,54.08
2018-04-01T20:39:09.929Z,48.50
2018-04-01T20:41:39.229Z,52.38
2018-04-01T20:44:07.815Z,52.17
2018-04-01T20:46:37.026Z,58.65
2018-04-01T20:49:05.492Z,56.37
2018-04-01T20:51:34.702Z,68.07
2018-04-01T20:54:03.174Z,61.83
2018-04-01T20:56:32.471Z,63.65
2018-04-01T20:59:01.648Z,54.85
2018-04-01T21:01:30.176Z,64.00
2018-04-01T21:03:58.736Z,61.15
2018-04-01T21:06:27.890Z,58.85
2018-04-01T21:08:56.824Z,63.72
2018-04-01T21:11:25.978Z,66.62
2018-04-01T21:13:54.591Z,60.78
2018-04-01T21:16:23.945Z,59.78
2018-04-01T21:18:52.489Z,54.10
2018-04-01T21:21:20.923Z,69.50
2018-04-01T21:23:49.443Z,64.45
2018-04-01T21:26:18.602Z,62.40
2018-04-01T21:28:46.997Z,60.97
2018-04-01T21:31:16.229Z,69.82
2018-04-01T21:33:44.715Z,68.53
2018-04-01T21:36:13.090Z,67.55
2018-04-01T21:38:41.582Z,67.35
2018-04-01T21:41:10.141Z,68.80
2018-04-01T21:43:38.561Z,69.53
2018-04-01T21:46:06.949Z,70.15
2018-04-01T21:48:35.587Z,69.60
2018-04-01T21:51:04.168Z,71.68
2018-04-01T21:53:32.585Z,69.72
2018-04-01T21:56:01.234Z,69.87
2018-04-01T21:58:29.710Z,71.68
2018-04-01T22:00:58.940Z,62.53
2018-04-01T22:03:27.492Z,67.25
2018-04-01T22:05:56.663Z,67.30
2018-04-01T22:08:25.044Z,70.70
2018-04-01T22:10:53.452Z,70.12
2018-04-01T22:13:22.601Z,66.00
2018-04-01T22:15:51.013Z,66.93
2018-04-01T22:18:19.472Z,69.95
2018-04-01T22:20:47.914Z,66.47
2018-04-01T22:23:16.485Z,65.93
2018-04-01T22:25:45.050Z,63.63
2018-04-01T22:28:13.547Z,66.43
2018-04-01T22:30:41.944Z,96.37
2018-04-01T22:33:10.369Z,102.30
2018-04-01T22:35:38.974Z,95.22
2018-04-01T22:38:08.173Z,87.93
2018-04-01T22:40:37.060Z,78.35
2018-04-01T22:43:05.640Z,81.12
2018-04-01T22:45:34.938Z,72.62
2018-04-01T22:48:04.339Z,70.50
2018-04-01T22:50:33.651Z,65.15
2018-04-01T22:53:02.228Z,62.88
2018-04-01T22:55:30.646Z,69.90
2018-04-01T22:57:59.290Z,67.37
2018-04-01T23:00:27.692Z,66.95
2018-04-01T23:02:56.353Z,74.32
2018-04-01T23:05:24.755Z,72.57
2018-04-01T23:07:53.123Z,68.55
2018-04-01T23:10:21.751Z,76.15
2018-04-01T23:12:50.197Z,75.32
2018-04-01T23:15:18.760Z,72.32
2018-04-01T23:17:47.150Z,70.97
2018-04-01T23:20:15.715Z,61.55
2018-04-01T23:22:44.489Z,72.82
2018-04-01T23:25:13.723Z,68.07
2018-04-01T23:27:42.292Z,66.15
2018-04-01T23:30:10.975Z,65.57
2018-04-01T23:32:39.387Z,65.20
2018-04-01T23:35:07.935Z,61.42
2018-04-01T23:37:36.424Z,70.00
2018-04-01T23:40:05.001Z,66.03
2018-04-01T23:42:33.421Z,69.37
2018-04-01T23:45:02.059Z,72.80
2018-04-01T23:47:31.276Z,72.55
2018-04-01T23:49:59.688Z,63.83
2018-04-01T23:52:28.118Z,68.78
2018-04-01T23:54:57.415Z,67.87
2018-04-01T23:57:26.717Z,72.03
2018-04-01T23:59:55.319Z,70.37
